sensor_id;sensor_type;location;lat;lon;timestamp;P1;durP1;ratioP1;P2;durP2;ratioP2
52888;SDS011;41413;52.770;6.892;2022-09-12T00:00:09;16.63;;;15.20;;
52888;SDS011;41413;52.770;6.892;2022-09-12T00:02:36;16.75;;;15.35;;
52888;SDS011;41413;52.770;6.892;2022-09-12T00:05:03;16.92;;;15.43;;
52888;SDS011;41413;52.770;6.892;2022-09-12T00:07:32;17.65;;;16.00;;
52888;SDS011;41413;52.770;6.892;2022-09-12T00:09:59;16.98;;;15.52;;
52888;SDS011;41413;52.770;6.892;2022-09-12T00:12:26;18.25;;;16.63;;
52888;SDS011;41413;52.770;6.892;2022-09-12T00:14:52;18.35;;;16.52;;
52888;SDS011;41413;52.770;6.892;2022-09-12T00:17:19;18.77;;;17.05;;
52888;SDS011;41413;52.770;6.892;2022-09-12T00:19:46;17.13;;;15.65;;
52888;SDS011;41413;52.770;6.892;2022-09-12T00:22:12;16.30;;;14.93;;
52888;SDS011;41413;52.770;6.892;2022-09-12T00:24:39;16.38;;;14.98;;
52888;SDS011;41413;52.770;6.892;2022-09-12T00:27:06;17.75;;;16.05;;
52888;SDS011;41413;52.770;6.892;2022-09-12T00:29:32;19.13;;;17.33;;
52888;SDS011;41413;52.770;6.892;2022-09-12T00:31:59;18.35;;;16.58;;
52888;SDS011;41413;52.770;6.892;2022-09-12T00:34:26;18.98;;;17.27;;
52888;SDS011;41413;52.770;6.892;2022-09-12T00:36:52;19.02;;;17.23;;
52888;SDS011;41413;52.770;6.892;2022-09-12T00:39:19;20.10;;;18.38;;
52888;SDS011;41413;52.770;6.892;2022-09-12T00:41:46;20.27;;;18.48;;
52888;SDS011;41413;52.770;6.892;2022-09-12T00:52:11;20.75;;;19.08;;
52888;SDS011;41413;52.770;6.892;2022-09-12T00:54:50;20.83;;;19.15;;
52888;SDS011;41413;52.770;6.892;2022-09-12T00:57:48;23.88;;;21.67;;
52888;SDS011;41413;52.770;6.892;2022-09-12T01:00:19;21.45;;;19.55;;
52888;SDS011;41413;52.770;6.892;2022-09-12T01:02:49;22.17;;;19.88;;
52888;SDS011;41413;52.770;6.892;2022-09-12T01:05:20;24.15;;;21.85;;
52888;SDS011;41413;52.770;6.892;2022-09-12T01:07:48;23.77;;;21.85;;
52888;SDS011;41413;52.770;6.892;2022-09-12T01:10:16;23.23;;;21.17;;
52888;SDS011;41413;52.770;6.892;2022-09-12T01:12:44;25.35;;;22.80;;
52888;SDS011;41413;52.770;6.892;2022-09-12T01:15:11;23.38;;;21.08;;
52888;SDS011;41413;52.770;6.892;2022-09-12T01:17:54;25.42;;;23.08;;
52888;SDS011;41413;52.770;6.892;2022-09-12T01:20:45;23.77;;;21.50;;
52888;SDS011;41413;52.770;6.892;2022-09-12T01:23:31;26.75;;;24.35;;
52888;SDS011;41413;52.770;6.892;2022-09-12T01:26:32;25.10;;;22.73;;
52888;SDS011;41413;52.770;6.892;2022-09-12T01:32:20;24.95;;;22.75;;
52888;SDS011;41413;52.770;6.892;2022-09-12T01:38:05;23.13;;;21.08;;
52888;SDS011;41413;52.770;6.892;2022-09-12T01:40:53;25.88;;;23.50;;
52888;SDS011;41413;52.770;6.892;2022-09-12T01:49:06;25.90;;;22.75;;
52888;SDS011;41413;52.770;6.892;2022-09-12T01:52:43;26.48;;;24.17;;
52888;SDS011;41413;52.770;6.892;2022-09-12T01:54:54;24.85;;;22.65;;
52888;SDS011;41413;52.770;6.892;2022-09-12T01:57:34;25.75;;;23.35;;
52888;SDS011;41413;52.770;6.892;2022-09-12T02:00:08;27.42;;;24.92;;
52888;SDS011;41413;52.770;6.892;2022-09-12T02:02:44;25.80;;;23.58;;
52888;SDS011;41413;52.770;6.892;2022-09-12T02:07:53;29.10;;;26.63;;
52888;SDS011;41413;52.770;6.892;2022-09-12T02:10:42;27.65;;;25.27;;
52888;SDS011;41413;52.770;6.892;2022-09-12T02:13:29;27.73;;;25.25;;
52888;SDS011;41413;52.770;6.892;2022-09-12T02:16:18;26.52;;;24.30;;
52888;SDS011;41413;52.770;6.892;2022-09-12T02:18:54;28.70;;;26.30;;
52888;SDS011;41413;52.770;6.892;2022-09-12T02:21:24;26.13;;;23.77;;
52888;SDS011;41413;52.770;6.892;2022-09-12T02:23:55;29.40;;;26.80;;
52888;SDS011;41413;52.770;6.892;2022-09-12T02:26:28;28.50;;;26.00;;
52888;SDS011;41413;52.770;6.892;2022-09-12T02:28:58;28.85;;;26.45;;
52888;SDS011;41413;52.770;6.892;2022-09-12T02:31:26;28.33;;;25.67;;
52888;SDS011;41413;52.770;6.892;2022-09-12T02:34:03;29.00;;;26.17;;
52888;SDS011;41413;52.770;6.892;2022-09-12T02:36:57;29.02;;;26.15;;
52888;SDS011;41413;52.770;6.892;2022-09-12T02:39:31;30.98;;;27.40;;
52888;SDS011;41413;52.770;6.892;2022-09-12T02:41:59;30.05;;;27.30;;
52888;SDS011;41413;52.770;6.892;2022-09-12T02:44:27;29.02;;;26.30;;
52888;SDS011;41413;52.770;6.892;2022-09-12T02:46:57;28.95;;;26.30;;
52888;SDS011;41413;52.770;6.892;2022-09-12T02:49:44;29.25;;;26.70;;
52888;SDS011;41413;52.770;6.892;2022-09-12T02:52:12;30.35;;;27.65;;
52888;SDS011;41413;52.770;6.892;2022-09-12T02:54:39;30.05;;;27.25;;
52888;SDS011;41413;52.770;6.892;2022-09-12T02:57:15;31.83;;;28.90;;
52888;SDS011;41413;52.770;6.892;2022-09-12T02:59:48;28.75;;;26.38;;
52888;SDS011;41413;52.770;6.892;2022-09-12T03:13:20;29.83;;;26.85;;
52888;SDS011;41413;52.770;6.892;2022-09-12T03:24:21;27.13;;;24.80;;
52888;SDS011;41413;52.770;6.892;2022-09-12T03:27:07;28.85;;;26.08;;
52888;SDS011;41413;52.770;6.892;2022-09-12T03:29:40;28.95;;;26.25;;
52888;SDS011;41413;52.770;6.892;2022-09-12T03:32:10;28.17;;;25.02;;
52888;SDS011;41413;52.770;6.892;2022-09-12T03:34:37;28.27;;;25.38;;
52888;SDS011;41413;52.770;6.892;2022-09-12T03:37:04;27.48;;;24.65;;
52888;SDS011;41413;52.770;6.892;2022-09-12T03:39:31;28.55;;;26.10;;
52888;SDS011;41413;52.770;6.892;2022-09-12T03:41:58;29.35;;;26.55;;
52888;SDS011;41413;52.770;6.892;2022-09-12T03:44:24;30.30;;;27.63;;
52888;SDS011;41413;52.770;6.892;2022-09-12T03:46:51;27.23;;;24.88;;
52888;SDS011;41413;52.770;6.892;2022-09-12T03:49:18;27.00;;;24.67;;
52888;SDS011;41413;52.770;6.892;2022-09-12T03:51:44;29.08;;;26.15;;
52888;SDS011;41413;52.770;6.892;2022-09-12T03:54:11;28.17;;;25.42;;
52888;SDS011;41413;52.770;6.892;2022-09-12T03:56:38;29.25;;;26.70;;
52888;SDS011;41413;52.770;6.892;2022-09-12T03:59:06;27.50;;;24.85;;
52888;SDS011;41413;52.770;6.892;2022-09-12T04:01:33;30.35;;;27.50;;
52888;SDS011;41413;52.770;6.892;2022-09-12T04:04:00;31.23;;;28.33;;
52888;SDS011;41413;52.770;6.892;2022-09-12T04:06:27;29.40;;;26.80;;
52888;SDS011;41413;52.770;6.892;2022-09-12T04:08:54;30.27;;;27.63;;
52888;SDS011;41413;52.770;6.892;2022-09-12T04:11:21;28.88;;;26.17;;
52888;SDS011;41413;52.770;6.892;2022-09-12T04:13:48;31.00;;;28.20;;
52888;SDS011;41413;52.770;6.892;2022-09-12T04:16:15;32.08;;;28.98;;
52888;SDS011;41413;52.770;6.892;2022-09-12T04:18:43;30.67;;;27.75;;
52888;SDS011;41413;52.770;6.892;2022-09-12T04:21:15;31.52;;;28.83;;
52888;SDS011;41413;52.770;6.892;2022-09-12T04:23:43;30.58;;;27.70;;
52888;SDS011;41413;52.770;6.892;2022-09-12T04:26:10;31.38;;;28.58;;
52888;SDS011;41413;52.770;6.892;2022-09-12T04:28:38;30.50;;;27.73;;
52888;SDS011;41413;52.770;6.892;2022-09-12T04:31:10;29.15;;;26.50;;
52888;SDS011;41413;52.770;6.892;2022-09-12T04:33:43;30.50;;;27.58;;
52888;SDS011;41413;52.770;6.892;2022-09-12T04:36:11;31.13;;;28.15;;
52888;SDS011;41413;52.770;6.892;2022-09-12T04:38:41;30.90;;;27.98;;
52888;SDS011;41413;52.770;6.892;2022-09-12T04:41:19;30.98;;;28.15;;
52888;SDS011;41413;52.770;6.892;2022-09-12T04:43:46;31.65;;;28.88;;
52888;SDS011;41413;52.770;6.892;2022-09-12T04:46:16;31.45;;;28.58;;
52888;SDS011;41413;52.770;6.892;2022-09-12T04:48:47;30.80;;;27.90;;
52888;SDS011;41413;52.770;6.892;2022-09-12T04:51:19;31.52;;;28.60;;
52888;SDS011;41413;52.770;6.892;2022-09-12T04:53:48;31.63;;;28.83;;
52888;SDS011;41413;52.770;6.892;2022-09-12T04:56:17;32.78;;;29.60;;
52888;SDS011;41413;52.770;6.892;2022-09-12T04:58:45;32.88;;;29.67;;
52888;SDS011;41413;52.770;6.892;2022-09-12T05:01:19;34.75;;;31.23;;
52888;SDS011;41413;52.770;6.892;2022-09-12T05:03:47;34.72;;;31.38;;
52888;SDS011;41413;52.770;6.892;2022-09-12T05:06:16;36.65;;;33.22;;
52888;SDS011;41413;52.770;6.892;2022-09-12T05:08:47;34.95;;;31.60;;
52888;SDS011;41413;52.770;6.892;2022-09-12T05:11:15;32.38;;;29.33;;
52888;SDS011;41413;52.770;6.892;2022-09-12T05:13:49;35.13;;;31.50;;
52888;SDS011;41413;52.770;6.892;2022-09-12T05:16:17;38.17;;;34.60;;
52888;SDS011;41413;52.770;6.892;2022-09-12T05:18:45;36.00;;;32.58;;
52888;SDS011;41413;52.770;6.892;2022-09-12T05:21:13;37.60;;;33.90;;
52888;SDS011;41413;52.770;6.892;2022-09-12T05:23:41;38.53;;;34.90;;
52888;SDS011;41413;52.770;6.892;2022-09-12T05:26:12;35.35;;;31.95;;
52888;SDS011;41413;52.770;6.892;2022-09-12T05:28:40;35.67;;;32.38;;
52888;SDS011;41413;52.770;6.892;2022-09-12T05:31:25;35.08;;;31.85;;
52888;SDS011;41413;52.770;6.892;2022-09-12T05:33:53;36.20;;;32.85;;
52888;SDS011;41413;52.770;6.892;2022-09-12T05:36:22;35.35;;;31.98;;
52888;SDS011;41413;52.770;6.892;2022-09-12T05:38:53;34.53;;;31.25;;
52888;SDS011;41413;52.770;6.892;2022-09-12T05:41:20;33.85;;;30.30;;
52888;SDS011;41413;52.770;6.892;2022-09-12T05:43:51;36.80;;;33.40;;
52888;SDS011;41413;52.770;6.892;2022-09-12T05:46:25;37.03;;;33.45;;
52888;SDS011;41413;52.770;6.892;2022-09-12T05:48:53;37.10;;;33.63;;
52888;SDS011;41413;52.770;6.892;2022-09-12T05:51:26;37.53;;;33.80;;
52888;SDS011;41413;52.770;6.892;2022-09-12T05:53:57;37.22;;;33.35;;
52888;SDS011;41413;52.770;6.892;2022-09-12T05:56:26;35.95;;;32.58;;
52888;SDS011;41413;52.770;6.892;2022-09-12T05:58:55;37.03;;;33.35;;
52888;SDS011;41413;52.770;6.892;2022-09-12T06:01:27;37.97;;;34.17;;
52888;SDS011;41413;52.770;6.892;2022-09-12T06:03:56;37.17;;;33.45;;
52888;SDS011;41413;52.770;6.892;2022-09-12T06:06:26;39.17;;;35.30;;
52888;SDS011;41413;52.770;6.892;2022-09-12T06:09:00;40.47;;;36.22;;
52888;SDS011;41413;52.770;6.892;2022-09-12T06:11:29;38.53;;;34.58;;
52888;SDS011;41413;52.770;6.892;2022-09-12T06:13:59;37.58;;;33.67;;
52888;SDS011;41413;52.770;6.892;2022-09-12T06:16:27;38.08;;;34.20;;
52888;SDS011;41413;52.770;6.892;2022-09-12T06:18:56;38.90;;;35.05;;
52888;SDS011;41413;52.770;6.892;2022-09-12T06:21:25;38.67;;;34.58;;
52888;SDS011;41413;52.770;6.892;2022-09-12T06:23:53;39.60;;;35.55;;
52888;SDS011;41413;52.770;6.892;2022-09-12T06:26:21;40.22;;;34.25;;
52888;SDS011;41413;52.770;6.892;2022-09-12T06:28:50;34.63;;;30.75;;
52888;SDS011;41413;52.770;6.892;2022-09-12T06:31:20;37.47;;;33.65;;
52888;SDS011;41413;52.770;6.892;2022-09-12T06:33:51;37.17;;;33.33;;
52888;SDS011;41413;52.770;6.892;2022-09-12T06:36:26;39.13;;;35.28;;
52888;SDS011;41413;52.770;6.892;2022-09-12T06:38:55;35.45;;;31.95;;
52888;SDS011;41413;52.770;6.892;2022-09-12T06:41:26;34.35;;;31.08;;
52888;SDS011;41413;52.770;6.892;2022-09-12T06:43:54;36.72;;;32.90;;
52888;SDS011;41413;52.770;6.892;2022-09-12T06:46:21;36.00;;;32.45;;
52888;SDS011;41413;52.770;6.892;2022-09-12T06:48:49;37.33;;;33.83;;
52888;SDS011;41413;52.770;6.892;2022-09-12T06:51:16;37.38;;;33.50;;
52888;SDS011;41413;52.770;6.892;2022-09-12T06:53:47;35.95;;;32.45;;
52888;SDS011;41413;52.770;6.892;2022-09-12T06:56:18;34.88;;;31.45;;
52888;SDS011;41413;52.770;6.892;2022-09-12T06:58:47;38.63;;;34.83;;
52888;SDS011;41413;52.770;6.892;2022-09-12T07:01:15;38.13;;;34.13;;
52888;SDS011;41413;52.770;6.892;2022-09-12T07:03:47;36.28;;;32.72;;
52888;SDS011;41413;52.770;6.892;2022-09-12T07:06:19;38.15;;;33.53;;
52888;SDS011;41413;52.770;6.892;2022-09-12T07:08:49;33.90;;;30.55;;
52888;SDS011;41413;52.770;6.892;2022-09-12T07:11:17;35.55;;;31.88;;
52888;SDS011;41413;52.770;6.892;2022-09-12T07:13:46;32.78;;;29.17;;
52888;SDS011;41413;52.770;6.892;2022-09-12T07:16:15;33.38;;;29.98;;
52888;SDS011;41413;52.770;6.892;2022-09-12T07:24:08;30.48;;;27.38;;
52888;SDS011;41413;52.770;6.892;2022-09-12T07:26:36;31.77;;;28.60;;
52888;SDS011;41413;52.770;6.892;2022-09-12T07:29:05;32.63;;;29.70;;
52888;SDS011;41413;52.770;6.892;2022-09-12T07:31:51;27.13;;;24.42;;
52888;SDS011;41413;52.770;6.892;2022-09-12T07:34:18;27.55;;;24.70;;
52888;SDS011;41413;52.770;6.892;2022-09-12T07:36:45;26.13;;;23.33;;
52888;SDS011;41413;52.770;6.892;2022-09-12T07:39:12;25.77;;;23.27;;
52888;SDS011;41413;52.770;6.892;2022-09-12T07:41:38;26.88;;;22.25;;
52888;SDS011;41413;52.770;6.892;2022-09-12T07:44:05;24.92;;;21.92;;
52888;SDS011;41413;52.770;6.892;2022-09-12T07:46:32;24.90;;;22.40;;
52888;SDS011;41413;52.770;6.892;2022-09-12T07:49:00;23.77;;;21.38;;
52888;SDS011;41413;52.770;6.892;2022-09-12T07:51:28;23.73;;;21.55;;
52888;SDS011;41413;52.770;6.892;2022-09-12T07:53:55;24.55;;;21.95;;
52888;SDS011;41413;52.770;6.892;2022-09-12T07:56:23;25.20;;;22.60;;
52888;SDS011;41413;52.770;6.892;2022-09-12T07:58:55;24.02;;;21.67;;
52888;SDS011;41413;52.770;6.892;2022-09-12T08:01:22;22.48;;;20.17;;
52888;SDS011;41413;52.770;6.892;2022-09-12T08:03:52;21.35;;;19.35;;
52888;SDS011;41413;52.770;6.892;2022-09-12T08:06:20;22.65;;;19.75;;
52888;SDS011;41413;52.770;6.892;2022-09-12T08:08:49;19.15;;;17.35;;
52888;SDS011;41413;52.770;6.892;2022-09-12T08:11:18;21.38;;;19.38;;
52888;SDS011;41413;52.770;6.892;2022-09-12T08:13:46;22.02;;;19.92;;
52888;SDS011;41413;52.770;6.892;2022-09-12T08:16:20;21.20;;;19.13;;
52888;SDS011;41413;52.770;6.892;2022-09-12T08:18:48;22.13;;;19.92;;
52888;SDS011;41413;52.770;6.892;2022-09-12T08:21:18;21.38;;;19.23;;
52888;SDS011;41413;52.770;6.892;2022-09-12T08:23:50;21.08;;;19.08;;
52888;SDS011;41413;52.770;6.892;2022-09-12T08:26:19;21.70;;;19.50;;
52888;SDS011;41413;52.770;6.892;2022-09-12T08:28:46;21.77;;;19.48;;
52888;SDS011;41413;52.770;6.892;2022-09-12T08:31:13;21.75;;;19.58;;
52888;SDS011;41413;52.770;6.892;2022-09-12T08:33:41;21.30;;;19.10;;
52888;SDS011;41413;52.770;6.892;2022-09-12T08:36:13;22.05;;;19.95;;
52888;SDS011;41413;52.770;6.892;2022-09-12T08:38:42;23.33;;;20.88;;
52888;SDS011;41413;52.770;6.892;2022-09-12T08:49:14;23.65;;;21.45;;
52888;SDS011;41413;52.770;6.892;2022-09-12T08:51:56;26.33;;;23.35;;
52888;SDS011;41413;52.770;6.892;2022-09-12T08:54:27;24.83;;;22.60;;
52888;SDS011;41413;52.770;6.892;2022-09-12T08:56:57;25.60;;;23.35;;
52888;SDS011;41413;52.770;6.892;2022-09-12T08:59:36;24.20;;;21.88;;
52888;SDS011;41413;52.770;6.892;2022-09-12T09:02:16;25.30;;;22.95;;
52888;SDS011;41413;52.770;6.892;2022-09-12T09:05:00;24.10;;;21.85;;
52888;SDS011;41413;52.770;6.892;2022-09-12T09:07:50;26.23;;;23.45;;
52888;SDS011;41413;52.770;6.892;2022-09-12T09:16:35;26.70;;;23.20;;
52888;SDS011;41413;52.770;6.892;2022-09-12T09:19:25;32.85;;;28.08;;
52888;SDS011;41413;52.770;6.892;2022-09-12T09:21:56;30.58;;;27.13;;
52888;SDS011;41413;52.770;6.892;2022-09-12T09:24:31;31.73;;;28.02;;
52888;SDS011;41413;52.770;6.892;2022-09-12T09:29:52;30.52;;;27.15;;
52888;SDS011;41413;52.770;6.892;2022-09-12T09:32:29;33.33;;;30.10;;
52888;SDS011;41413;52.770;6.892;2022-09-12T09:38:12;37.50;;;30.67;;
52888;SDS011;41413;52.770;6.892;2022-09-12T09:43:48;34.28;;;30.13;;
52888;SDS011;41413;52.770;6.892;2022-09-12T09:46:15;36.50;;;32.78;;
52888;SDS011;41413;52.770;6.892;2022-09-12T09:48:45;35.50;;;31.05;;
52888;SDS011;41413;52.770;6.892;2022-09-12T09:51:19;35.38;;;31.52;;
52888;SDS011;41413;52.770;6.892;2022-09-12T09:53:57;42.30;;;33.35;;
52888;SDS011;41413;52.770;6.892;2022-09-12T09:59:16;38.05;;;33.88;;
52888;SDS011;41413;52.770;6.892;2022-09-12T10:02:01;44.47;;;32.22;;
52888;SDS011;41413;52.770;6.892;2022-09-12T10:04:55;39.47;;;34.83;;
52888;SDS011;41413;52.770;6.892;2022-09-12T10:07:24;41.80;;;32.75;;
52888;SDS011;41413;52.770;6.892;2022-09-12T10:12:37;36.17;;;30.73;;
52888;SDS011;41413;52.770;6.892;2022-09-12T10:15:15;39.88;;;31.23;;
52888;SDS011;41413;52.770;6.892;2022-09-12T10:17:47;34.55;;;30.85;;
52888;SDS011;41413;52.770;6.892;2022-09-12T10:20:28;37.10;;;31.45;;
52888;SDS011;41413;52.770;6.892;2022-09-12T10:22:59;30.65;;;27.40;;
52888;SDS011;41413;52.770;6.892;2022-09-12T10:25:56;30.60;;;27.27;;
52888;SDS011;41413;52.770;6.892;2022-09-12T10:28:31;31.65;;;28.20;;
52888;SDS011;41413;52.770;6.892;2022-09-12T10:31:23;30.55;;;27.25;;
52888;SDS011;41413;52.770;6.892;2022-09-12T10:33:56;33.25;;;28.33;;
52888;SDS011;41413;52.770;6.892;2022-09-12T10:36:24;34.70;;;28.50;;
52888;SDS011;41413;52.770;6.892;2022-09-12T10:41:33;37.42;;;28.70;;
52888;SDS011;41413;52.770;6.892;2022-09-12T10:44:05;30.95;;;27.08;;
52888;SDS011;41413;52.770;6.892;2022-09-12T10:46:34;32.35;;;26.77;;
52888;SDS011;41413;52.770;6.892;2022-09-12T10:51:48;34.13;;;25.98;;
52888;SDS011;41413;52.770;6.892;2022-09-12T10:54:17;29.13;;;24.88;;
52888;SDS011;41413;52.770;6.892;2022-09-12T11:02:01;28.85;;;21.73;;
52888;SDS011;41413;52.770;6.892;2022-09-12T11:07:37;23.25;;;19.90;;
52888;SDS011;41413;52.770;6.892;2022-09-12T11:12:52;32.65;;;22.20;;
52888;SDS011;41413;52.770;6.892;2022-09-12T11:24:25;17.65;;;15.70;;
52888;SDS011;41413;52.770;6.892;2022-09-12T11:27:07;24.83;;;20.45;;
52888;SDS011;41413;52.770;6.892;2022-09-12T11:29:41;23.58;;;18.60;;
52888;SDS011;41413;52.770;6.892;2022-09-12T11:37:43;19.63;;;17.73;;
52888;SDS011;41413;52.770;6.892;2022-09-12T11:40:36;22.08;;;18.55;;
52888;SDS011;41413;52.770;6.892;2022-09-12T11:43:04;23.83;;;21.42;;
52888;SDS011;41413;52.770;6.892;2022-09-12T11:45:56;26.73;;;19.63;;
52888;SDS011;41413;52.770;6.892;2022-09-12T11:51:03;20.83;;;17.27;;
52888;SDS011;41413;52.770;6.892;2022-09-12T11:53:35;17.98;;;15.75;;
52888;SDS011;41413;52.770;6.892;2022-09-12T11:56:09;20.93;;;15.73;;
52888;SDS011;41413;52.770;6.892;2022-09-12T11:58:43;12.25;;;11.13;;
52888;SDS011;41413;52.770;6.892;2022-09-12T12:01:24;13.10;;;11.82;;
52888;SDS011;41413;52.770;6.892;2022-09-12T12:03:58;13.73;;;12.30;;
52888;SDS011;41413;52.770;6.892;2022-09-12T12:06:31;12.00;;;10.63;;
52888;SDS011;41413;52.770;6.892;2022-09-12T12:09:11;12.32;;;10.98;;
52888;SDS011;41413;52.770;6.892;2022-09-12T12:11:40;12.55;;;11.35;;
52888;SDS011;41413;52.770;6.892;2022-09-12T12:14:22;15.02;;;11.95;;
52888;SDS011;41413;52.770;6.892;2022-09-12T12:16:53;14.18;;;12.82;;
52888;SDS011;41413;52.770;6.892;2022-09-12T12:19:24;11.75;;;9.95;;
52888;SDS011;41413;52.770;6.892;2022-09-12T12:22:33;16.05;;;13.65;;
52888;SDS011;41413;52.770;6.892;2022-09-12T12:25:38;18.63;;;14.63;;
52888;SDS011;41413;52.770;6.892;2022-09-12T12:27:50;15.30;;;12.30;;
52888;SDS011;41413;52.770;6.892;2022-09-12T12:35:40;14.30;;;12.80;;
52888;SDS011;41413;52.770;6.892;2022-09-12T12:42:01;13.85;;;12.48;;
52888;SDS011;41413;52.770;6.892;2022-09-12T12:44:45;15.65;;;14.02;;
52888;SDS011;41413;52.770;6.892;2022-09-12T12:47:10;14.65;;;11.25;;
52888;SDS011;41413;52.770;6.892;2022-09-12T12:49:48;12.15;;;10.95;;
52888;SDS011;41413;52.770;6.892;2022-09-12T12:52:17;11.65;;;10.23;;
52888;SDS011;41413;52.770;6.892;2022-09-12T12:57:18;11.00;;;9.77;;
52888;SDS011;41413;52.770;6.892;2022-09-12T13:00:00;14.18;;;9.32;;
52888;SDS011;41413;52.770;6.892;2022-09-12T13:02:40;13.27;;;8.50;;
52888;SDS011;41413;52.770;6.892;2022-09-12T13:05:16;9.55;;;8.65;;
52888;SDS011;41413;52.770;6.892;2022-09-12T13:07:46;10.40;;;9.40;;
52888;SDS011;41413;52.770;6.892;2022-09-12T13:10:21;12.02;;;10.88;;
52888;SDS011;41413;52.770;6.892;2022-09-12T13:12:49;12.63;;;9.70;;
52888;SDS011;41413;52.770;6.892;2022-09-12T13:18:03;12.77;;;10.15;;
52888;SDS011;41413;52.770;6.892;2022-09-12T13:20:32;9.90;;;9.00;;
52888;SDS011;41413;52.770;6.892;2022-09-12T13:23:20;13.40;;;10.23;;
52888;SDS011;41413;52.770;6.892;2022-09-12T13:25:55;10.32;;;9.02;;
52888;SDS011;41413;52.770;6.892;2022-09-12T13:28:23;11.05;;;10.02;;
52888;SDS011;41413;52.770;6.892;2022-09-12T13:33:46;14.55;;;10.25;;
52888;SDS011;41413;52.770;6.892;2022-09-12T13:41:45;10.57;;;9.57;;
52888;SDS011;41413;52.770;6.892;2022-09-12T13:44:38;10.27;;;9.18;;
52888;SDS011;41413;52.770;6.892;2022-09-12T13:47:22;10.90;;;9.90;;
52888;SDS011;41413;52.770;6.892;2022-09-12T13:49:53;9.77;;;8.77;;
52888;SDS011;41413;52.770;6.892;2022-09-12T13:52:22;9.98;;;8.95;;
52888;SDS011;41413;52.770;6.892;2022-09-12T13:54:57;8.85;;;7.95;;
52888;SDS011;41413;52.770;6.892;2022-09-12T13:57:32;9.30;;;8.45;;
52888;SDS011;41413;52.770;6.892;2022-09-12T14:00:04;10.63;;;9.55;;
52888;SDS011;41413;52.770;6.892;2022-09-12T14:02:46;11.20;;;8.85;;
52888;SDS011;41413;52.770;6.892;2022-09-12T14:05:21;8.32;;;7.35;;
52888;SDS011;41413;52.770;6.892;2022-09-12T14:10:40;7.95;;;7.25;;
52888;SDS011;41413;52.770;6.892;2022-09-12T14:13:28;8.00;;;7.20;;
52888;SDS011;41413;52.770;6.892;2022-09-12T14:15:57;8.68;;;7.95;;
52888;SDS011;41413;52.770;6.892;2022-09-12T14:18:28;8.55;;;7.70;;
52888;SDS011;41413;52.770;6.892;2022-09-12T14:21:08;8.10;;;7.40;;
52888;SDS011;41413;52.770;6.892;2022-09-12T14:23:52;6.85;;;6.18;;
52888;SDS011;41413;52.770;6.892;2022-09-12T14:26:19;6.50;;;6.00;;
52888;SDS011;41413;52.770;6.892;2022-09-12T14:28:47;6.32;;;5.70;;
52888;SDS011;41413;52.770;6.892;2022-09-12T14:31:22;6.30;;;5.80;;
52888;SDS011;41413;52.770;6.892;2022-09-12T14:33:54;6.35;;;5.82;;
52888;SDS011;41413;52.770;6.892;2022-09-12T14:36:23;5.75;;;5.35;;
52888;SDS011;41413;52.770;6.892;2022-09-12T14:39:02;5.85;;;4.93;;
52888;SDS011;41413;52.770;6.892;2022-09-12T14:41:37;7.05;;;5.90;;
52888;SDS011;41413;52.770;6.892;2022-09-12T14:44:13;8.52;;;6.18;;
52888;SDS011;41413;52.770;6.892;2022-09-12T14:46:44;6.43;;;5.35;;
52888;SDS011;41413;52.770;6.892;2022-09-12T14:49:14;6.32;;;5.85;;
52888;SDS011;41413;52.770;6.892;2022-09-12T14:51:55;6.35;;;5.75;;
52888;SDS011;41413;52.770;6.892;2022-09-12T14:56:57;5.28;;;4.78;;
52888;SDS011;41413;52.770;6.892;2022-09-12T15:04:47;6.50;;;5.50;;
52888;SDS011;41413;52.770;6.892;2022-09-12T15:10:12;6.05;;;5.60;;
52888;SDS011;41413;52.770;6.892;2022-09-12T15:12:48;5.45;;;5.05;;
52888;SDS011;41413;52.770;6.892;2022-09-12T15:15:18;5.63;;;5.05;;
52888;SDS011;41413;52.770;6.892;2022-09-12T15:17:46;4.88;;;4.47;;
52888;SDS011;41413;52.770;6.892;2022-09-12T15:20:13;9.80;;;5.47;;
52888;SDS011;41413;52.770;6.892;2022-09-12T15:22:40;5.05;;;4.65;;
52888;SDS011;41413;52.770;6.892;2022-09-12T15:25:08;3.70;;;3.50;;
52888;SDS011;41413;52.770;6.892;2022-09-12T15:27:37;4.80;;;4.40;;
52888;SDS011;41413;52.770;6.892;2022-09-12T15:30:06;4.32;;;4.03;;
52888;SDS011;41413;52.770;6.892;2022-09-12T15:32:34;6.53;;;4.50;;
52888;SDS011;41413;52.770;6.892;2022-09-12T15:35:02;5.13;;;4.80;;
52888;SDS011;41413;52.770;6.892;2022-09-12T15:37:29;5.80;;;4.03;;
52888;SDS011;41413;52.770;6.892;2022-09-12T15:39:56;4.75;;;4.45;;
52888;SDS011;41413;52.770;6.892;2022-09-12T15:42:27;4.40;;;3.42;;
52888;SDS011;41413;52.770;6.892;2022-09-12T15:44:54;4.70;;;4.30;;
52888;SDS011;41413;52.770;6.892;2022-09-12T15:47:26;5.50;;;4.43;;
52888;SDS011;41413;52.770;6.892;2022-09-12T15:49:53;4.63;;;4.32;;
52888;SDS011;41413;52.770;6.892;2022-09-12T15:52:20;10.20;;;4.43;;
52888;SDS011;41413;52.770;6.892;2022-09-12T15:54:47;4.75;;;4.45;;
52888;SDS011;41413;52.770;6.892;2022-09-12T15:57:13;6.13;;;5.70;;
52888;SDS011;41413;52.770;6.892;2022-09-12T15:59:40;6.78;;;4.22;;
52888;SDS011;41413;52.770;6.892;2022-09-12T16:02:08;8.38;;;5.05;;
52888;SDS011;41413;52.770;6.892;2022-09-12T16:04:35;5.93;;;5.40;;
52888;SDS011;41413;52.770;6.892;2022-09-12T16:07:02;4.57;;;4.28;;
52888;SDS011;41413;52.770;6.892;2022-09-12T16:09:28;6.65;;;4.93;;
52888;SDS011;41413;52.770;6.892;2022-09-12T16:11:55;7.93;;;4.50;;
52888;SDS011;41413;52.770;6.892;2022-09-12T16:14:21;4.65;;;4.25;;
52888;SDS011;41413;52.770;6.892;2022-09-12T16:16:51;8.40;;;4.30;;
52888;SDS011;41413;52.770;6.892;2022-09-12T16:19:19;4.53;;;4.03;;
52888;SDS011;41413;52.770;6.892;2022-09-12T16:21:46;5.13;;;4.63;;
52888;SDS011;41413;52.770;6.892;2022-09-12T16:24:14;4.35;;;4.03;;
52888;SDS011;41413;52.770;6.892;2022-09-12T16:26:41;4.25;;;3.92;;
52888;SDS011;41413;52.770;6.892;2022-09-12T16:29:08;3.83;;;3.55;;
52888;SDS011;41413;52.770;6.892;2022-09-12T16:31:37;4.55;;;4.07;;
52888;SDS011;41413;52.770;6.892;2022-09-12T16:34:05;4.63;;;3.97;;
52888;SDS011;41413;52.770;6.892;2022-09-12T16:36:32;4.35;;;3.95;;
52888;SDS011;41413;52.770;6.892;2022-09-12T16:38:59;4.75;;;4.43;;
52888;SDS011;41413;52.770;6.892;2022-09-12T16:41:25;4.82;;;4.43;;
52888;SDS011;41413;52.770;6.892;2022-09-12T16:43:52;5.85;;;4.63;;
52888;SDS011;41413;52.770;6.892;2022-09-12T16:46:21;4.88;;;4.50;;
52888;SDS011;41413;52.770;6.892;2022-09-12T16:48:50;4.70;;;4.40;;
52888;SDS011;41413;52.770;6.892;2022-09-12T16:51:29;4.93;;;4.53;;
52888;SDS011;41413;52.770;6.892;2022-09-12T16:53:58;5.28;;;4.72;;
52888;SDS011;41413;52.770;6.892;2022-09-12T16:56:24;5.03;;;4.43;;
52888;SDS011;41413;52.770;6.892;2022-09-12T16:58:51;5.93;;;5.32;;
52888;SDS011;41413;52.770;6.892;2022-09-12T17:01:20;6.20;;;5.05;;
52888;SDS011;41413;52.770;6.892;2022-09-12T17:03:55;5.25;;;4.65;;
52888;SDS011;41413;52.770;6.892;2022-09-12T17:06:23;7.90;;;5.38;;
52888;SDS011;41413;52.770;6.892;2022-09-12T17:08:52;5.22;;;4.80;;
52888;SDS011;41413;52.770;6.892;2022-09-12T17:11:21;5.20;;;4.75;;
52888;SDS011;41413;52.770;6.892;2022-09-12T17:13:50;7.07;;;5.20;;
52888;SDS011;41413;52.770;6.892;2022-09-12T17:16:30;7.20;;;5.38;;
52888;SDS011;41413;52.770;6.892;2022-09-12T17:19:01;4.75;;;4.28;;
52888;SDS011;41413;52.770;6.892;2022-09-12T17:21:28;5.45;;;4.95;;